PABI/DJN METAR and TAF weather

Enter ICAO airport designator
Station Type Date Time Source
PABI METAR 2019/02/16 06:53 UTC NOAA

PABI 160653Z AUTO 12017KT 10SM CLR M15/M19 A3009 RMK AO2 PK WND 11028/0631 SLP252 T11501189 TSNO


Station Type Date Time Source
PABI Decoded METAR 2019/02/16 06:53 UTC NOAA

ALLEN ARMY AIRFIELD, AK, United States (PABI) 64-00N 145-43W 391M
Feb 16, 2019 - 01:53 AM EST / 2019.02.16 0653 UTC
Wind: from the ESE (120 degrees) at 20 MPH (17 KT):0
Visibility: 10 mile(s):0
Sky conditions: clear
Temperature: 5.0 F (-15.0 C)
Windchill: -14 F (-26 C):2
Dew Point: -2.0 F (-18.9 C)
Relative Humidity: 72%
Pressure (altimeter): 30.09 in. Hg (1018 hPa)
ob: PABI 160653Z AUTO 12017KT 10SM CLR M15/M19 A3009 RMK AO2 PK WND 11028/0631 SLP252 T11501189 TSNO
cycle: 7

Station Type Date Time Source
PABI TAF 2019/02/16 02:16 UTC NOAA

TAF COR PABI 160235Z 1602/1704 VRB06KT 9999 SKC QNH3003INS
BECMG 1602/1603 09015G20KT 9999 SKC QNH2995INS
TEMPO 1608/1613 09020G30KT 510003
BECMG 1619/1620 08010G15KT 9999 BKN100 QNH3005INS TXM10/1622Z TNM19/1604Z LAST NO
AMDS AFT 1602 NEXT 1814


Example: see airport list